Empalme Querandies, Argentina
Current Conditions -  °F | °C
As of 12:00 PM on Monday 22 Dec 2014 (Local Time) from SAZM Reporting Station
Broken Clouds Broken Clouds  
Wind Chill: 16°   Ceiling: 20000
Heat Index: 16°   Visibility: 6mi
Dew Point:   Wind: 12mph
Humidity: 48%   Direction: 230°SW
Pressure: 30.03"   Gusts: NA
Location:  36.93°S, 60.31°W
Report Text: SAZM 221500Z 23010KT 9999 SCT025 FEW035CBBKN200 16/05 Q1017
Loading
Personal Weather Stations






























Interactive Weather Map New forecast layout! Learn more

10-Day Weather Forecast

Advertisements
Track Severe Weather on mobile